Time;durP1;ratioP1;P1;durP2;ratioP2;P2;SDS_P1;SDS_P2;PMS_P1;PMS_P2;Temp;Humidity;BMP_temperature;BMP_pressure;BME280_temperature;BME280_humidity;BME280_pressure;Samples;Min_cycle;Max_cycle;Signal;HPM_P1;HPM_P2
2023/10/27 04:30:47;;;;;;;0.10;0.10;;;12.00;88.60;;;;;;5796713;23;20484;-75
2023/10/27 04:33:13;;;;;;;0.10;0.10;;;12.00;88.80;;;;;;5013871;28;20061;-75
2023/10/27 04:35:38;;;;;;;0.10;0.10;;;11.90;88.80;;;;;;5018498;28;20026;-75
2023/10/27 04:38:04;;;;;;;0.10;0.10;;;11.90;88.60;;;;;;5000287;28;20081;-75
2023/10/27 04:40:31;;;;;;;0.10;0.10;;;11.90;88.70;;;;;;5028392;28;20473;-75
2023/10/27 04:42:58;;;;;;;0.10;0.10;;;11.90;88.70;;;;;;5013359;28;20098;-75
2023/10/27 04:45:25;;;;;;;0.10;0.10;;;11.90;88.70;;;;;;5019883;28;20029;-75
2023/10/27 04:47:50;;;;;;;0.10;0.10;;;11.90;88.70;;;;;;5008794;28;20125;-74
2023/10/27 04:50:17;;;;;;;0.10;0.10;;;11.80;88.60;;;;;;5012425;28;20046;-76
2023/10/27 04:52:43;;;;;;;0.10;0.10;;;11.80;88.90;;;;;;4999966;28;20022;-75
2023/10/27 04:55:09;;;;;;;0.10;0.10;;;11.80;88.80;;;;;;4982486;28;20462;-75
2023/10/27 04:57:35;;;;;;;0.10;0.10;;;11.80;88.70;;;;;;4982204;28;20463;-74
2023/10/27 05:00:04;;;;;;;0.10;0.10;;;11.80;88.70;;;;;;4982901;28;20060;-75
2023/10/27 05:02:30;;;;;;;0.10;0.10;;;11.80;88.60;;;;;;5004631;28;20030;-72
2023/10/27 05:04:55;;;;;;;0.10;0.10;;;11.80;88.60;;;;;;4999353;28;20474;-72
2023/10/27 05:07:21;;;;;;;0.10;0.10;;;11.80;88.70;;;;;;4996129;28;20026;-72
2023/10/27 05:09:46;;;;;;;0.10;0.10;;;11.80;88.50;;;;;;5000102;28;20033;-72
2023/10/27 05:12:12;;;;;;;0.10;0.10;;;11.80;88.70;;;;;;4999654;28;20030;-72
2023/10/27 05:14:37;;;;;;;0.10;0.10;;;11.80;88.80;;;;;;4999265;28;20113;-73
2023/10/27 05:17:03;;;;;;;0.10;0.10;;;11.80;88.60;;;;;;5000517;28;20030;-72
2023/10/27 05:19:29;;;;;;;0.10;0.10;;;11.80;88.80;;;;;;5017136;28;20026;-72
2023/10/27 05:21:54;;;;;;;0.10;0.10;;;11.70;88.80;;;;;;5003884;28;20026;-73
2023/10/27 05:24:20;;;;;;;0.10;0.10;;;11.70;89.00;;;;;;4999454;28;20073;-74
2023/10/27 05:26:45;;;;;;;0.10;0.10;;;11.70;89.00;;;;;;4999206;28;20022;-72
2023/10/27 05:29:11;;;;;;;0.10;0.10;;;11.70;89.10;;;;;;4999752;28;20170;-72
2023/10/27 05:31:39;;;;;;;0.10;0.10;;;11.70;89.00;;;;;;4985871;28;20049;-72
2023/10/27 05:34:05;;;;;;;0.10;0.10;;;11.70;89.00;;;;;;4995925;28;20029;-72
2023/10/27 05:36:30;;;;;;;0.10;0.10;;;11.70;88.90;;;;;;4999477;28;20490;-72
2023/10/27 05:38:56;;;;;;;0.10;0.10;;;11.70;89.00;;;;;;4999955;28;20026;-72
2023/10/27 05:41:22;;;;;;;0.13;0.13;;;11.70;89.10;;;;;;4996630;28;20026;-72
2023/10/27 05:43:50;;;;;;;0.10;0.10;;;11.70;89.10;;;;;;5009046;28;20030;-72
2023/10/27 05:46:16;;;;;;;0.10;0.10;;;11.70;89.20;;;;;;4999076;28;20026;-72
2023/10/27 05:48:41;;;;;;;0.10;0.10;;;11.70;89.00;;;;;;4981723;28;20030;-72
2023/10/27 05:51:07;;;;;;;0.10;0.10;;;11.70;89.10;;;;;;4991562;28;20401;-72
2023/10/27 05:53:32;;;;;;;0.10;0.10;;;11.70;89.20;;;;;;5016005;28;20021;-72
2023/10/27 05:55:58;;;;;;;0.10;0.10;;;11.70;89.30;;;;;;5004144;28;20022;-72
2023/10/27 05:58:23;;;;;;;0.10;0.10;;;11.70;89.30;;;;;;4982156;28;20041;-72
2023/10/27 06:00:49;;;;;;;0.10;0.10;;;11.70;89.30;;;;;;5003772;28;20060;-72
2023/10/27 06:03:15;;;;;;;0.10;0.10;;;11.70;89.20;;;;;;5016310;28;20025;-72
2023/10/27 06:05:40;;;;;;;0.15;0.15;;;11.70;89.30;;;;;;5000788;28;20397;-72
2023/10/27 06:08:06;;;;;;;0.20;0.20;;;11.70;89.20;;;;;;4966011;28;20030;-72
2023/10/27 06:10:31;;;;;;;0.10;0.10;;;11.70;89.10;;;;;;5003340;28;20038;-72
2023/10/27 06:12:57;;;;;;;0.10;0.10;;;11.70;89.20;;;;;;5018206;28;20044;-72
2023/10/27 06:15:23;;;;;;;0.10;0.10;;;11.70;89.20;;;;;;5027510;28;20037;-72
2023/10/27 06:17:51;;;;;;;0.10;0.10;;;11.70;89.20;;;;;;5016398;28;20022;-72
2023/10/27 06:20:17;;;;;;;0.10;0.10;;;11.70;89.10;;;;;;4997618;28;20887;-72
2023/10/27 06:22:43;;;;;;;0.10;0.10;;;11.70;89.10;;;;;;5009847;28;20104;-72
2023/10/27 06:25:09;;;;;;;0.10;0.10;;;11.70;89.00;;;;;;4985991;28;20121;-72
2023/10/27 06:27:38;;;;;;;0.10;0.10;;;11.70;89.00;;;;;;4993054;28;20054;-72
2023/10/27 06:30:05;;;;;;;0.10;0.10;;;11.70;89.10;;;;;;5011581;28;20030;-72
2023/10/27 06:32:31;;;;;;;0.10;0.10;;;11.70;88.90;;;;;;4997973;28;20068;-72
2023/10/27 06:34:57;;;;;;;0.10;0.10;;;11.60;89.20;;;;;;4988126;28;20026;-72
2023/10/27 06:37:23;;;;;;;0.10;0.10;;;11.60;89.20;;;;;;4978533;28;20110;-72
2023/10/27 06:39:50;;;;;;;0.10;0.10;;;11.60;89.20;;;;;;5000300;28;20061;-72
2023/10/27 06:42:16;;;;;;;0.10;0.10;;;11.60;89.20;;;;;;4979927;28;20619;-72
2023/10/27 06:44:41;;;;;;;0.10;0.10;;;11.60;89.20;;;;;;4971646;28;20098;-73
2023/10/27 06:47:07;;;;;;;0.10;0.10;;;11.70;89.20;;;;;;4982353;28;20481;-72
2023/10/27 06:49:32;;;;;;;0.10;0.10;;;11.70;89.10;;;;;;4967249;28;20031;-71
2023/10/27 06:51:58;;;;;;;0.10;0.10;;;11.70;89.00;;;;;;4984770;28;20033;-72
2023/10/27 06:54:24;;;;;;;0.10;0.10;;;11.70;88.90;;;;;;4983574;28;20037;-72
2023/10/27 06:56:50;;;;;;;0.10;0.10;;;11.60;88.90;;;;;;4995120;28;20460;-73
2023/10/27 06:59:16;;;;;;;0.10;0.10;;;11.70;88.90;;;;;;4995409;28;20105;-72
2023/10/27 07:01:44;;;;;;;0.10;0.10;;;11.70;88.90;;;;;;4972874;28;20066;-73
2023/10/27 07:04:10;;;;;;;0.10;0.10;;;11.70;88.90;;;;;;4995730;28;20033;-72
2023/10/27 07:06:35;;;;;;;0.10;0.10;;;11.70;88.90;;;;;;4996723;28;20023;-72
2023/10/27 07:09:03;;;;;;;0.10;0.10;;;11.70;88.80;;;;;;4993968;28;20034;-74
2023/10/27 07:11:29;;;;;;;0.20;0.20;;;11.70;88.70;;;;;;4983674;28;20034;-73
2023/10/27 07:13:54;;;;;;;0.10;0.10;;;11.70;88.80;;;;;;4979990;28;20029;-72
2023/10/27 07:16:20;;;;;;;0.10;0.10;;;11.70;88.80;;;;;;4994076;28;20031;-73
2023/10/27 07:18:46;;;;;;;0.10;0.10;;;11.70;88.90;;;;;;4990079;28;20014;-74
2023/10/27 07:21:12;;;;;;;0.10;0.10;;;11.70;88.90;;;;;;4993534;28;20114;-74
2023/10/27 07:23:37;;;;;;;0.10;0.10;;;11.80;88.70;;;;;;4994283;28;20019;-73
2023/10/27 07:26:13;;;;;;;0.10;0.10;;;11.80;88.80;;;;;;4976292;28;20022;-73
2023/10/27 07:28:40;;;;;;;0.10;0.10;;;11.90;88.60;;;;;;4994060;28;20042;-73
2023/10/27 07:31:05;;;;;;;0.10;0.10;;;11.90;88.60;;;;;;4993379;28;20464;-73
2023/10/27 07:33:31;;;;;;;0.10;0.10;;;12.00;88.60;;;;;;5016697;28;20025;-75
2023/10/27 07:35:57;;;;;;;0.17;0.17;;;12.10;88.60;;;;;;5000556;28;20030;-74
2023/10/27 07:38:26;;;;;;;0.10;0.10;;;12.20;88.50;;;;;;5008598;28;20023;-73
2023/10/27 07:40:55;;;;;;;0.10;0.10;;;12.20;88.40;;;;;;4987493;28;20041;-73
2023/10/27 07:43:21;;;;;;;0.10;0.10;;;12.30;88.30;;;;;;5000518;28;20015;-73
2023/10/27 07:45:47;;;;;;;0.10;0.10;;;12.30;88.40;;;;;;5002469;28;20041;-73
2023/10/27 07:48:12;;;;;;;0.10;0.10;;;12.30;88.30;;;;;;4999870;28;20037;-72
2023/10/27 07:50:40;;;;;;;0.10;0.10;;;12.30;88.30;;;;;;5010702;28;20041;-73
2023/10/27 07:53:05;;;;;;;0.10;0.10;;;12.30;88.40;;;;;;5013169;28;20042;-73
2023/10/27 07:55:31;;;;;;;0.10;0.10;;;12.40;88.50;;;;;;4985932;28;20386;-73
2023/10/27 07:57:57;;;;;;;0.20;0.20;;;12.40;88.50;;;;;;4996487;28;20026;-73
2023/10/27 08:00:23;;;;;;;0.20;0.20;;;12.40;88.50;;;;;;5008553;28;20038;-73
2023/10/27 08:02:52;;;;;;;0.10;0.10;;;12.50;88.30;;;;;;5014140;28;20033;-74
2023/10/27 08:05:18;;;;;;;0.10;0.10;;;12.50;88.50;;;;;;5006274;28;20029;-74
2023/10/27 08:07:44;;;;;;;0.10;0.10;;;12.50;88.50;;;;;;5013518;28;20508;-73
2023/10/27 08:10:10;;;;;;;0.10;0.10;;;12.60;88.50;;;;;;4997290;28;20038;-73
2023/10/27 08:12:36;;;;;;;0.10;0.10;;;12.60;88.40;;;;;;5014223;28;20053;-74
2023/10/27 08:15:05;;;;;;;0.10;0.10;;;12.60;88.50;;;;;;5010374;28;20528;-74
2023/10/27 08:17:35;;;;;;;0.10;0.10;;;12.60;88.40;;;;;;5015049;28;20025;-73
2023/10/27 08:20:01;;;;;;;0.10;0.10;;;12.70;88.50;;;;;;4991452;28;20101;-73
2023/10/27 08:22:27;;;;;;;0.20;0.20;;;12.70;88.30;;;;;;5007489;28;20465;-72
2023/10/27 08:24:53;;;;;;;0.10;0.10;;;12.70;88.30;;;;;;4984707;28;20058;-73
2023/10/27 08:27:18;;;;;;;0.10;0.10;;;12.80;88.20;;;;;;5004859;28;20385;-73
2023/10/27 08:29:44;;;;;;;0.10;0.10;;;12.80;88.30;;;;;;5014256;28;20088;-73
2023/10/27 08:32:11;;;;;;;0.10;0.10;;;12.80;88.20;;;;;;5014209;28;20049;-73
2023/10/27 08:34:37;;;;;;;0.10;0.10;;;12.90;88.20;;;;;;4992471;28;20026;-72
2023/10/27 08:37:03;;;;;;;0.20;0.20;;;13.00;88.10;;;;;;4986640;28;20121;-73
2023/10/27 08:39:32;;;;;;;0.10;0.10;;;13.00;88.10;;;;;;5015266;28;20511;-73
2023/10/27 08:41:58;;;;;;;0.10;0.10;;;13.10;88.10;;;;;;5016151;28;20542;-73
2023/10/27 08:44:26;;;;;;;0.10;0.10;;;13.20;88.00;;;;;;5018405;28;20191;-73
2023/10/27 08:46:53;;;;;;;0.10;0.10;;;13.20;88.00;;;;;;5018038;28;20045;-73
2023/10/27 08:49:18;;;;;;;0.10;0.10;;;13.20;87.80;;;;;;5016791;28;20021;-73
2023/10/27 08:51:45;;;;;;;0.10;0.10;;;13.20;87.90;;;;;;5018306;28;20022;-73
2023/10/27 08:54:10;;;;;;;0.10;0.10;;;13.20;87.90;;;;;;5015970;28;20030;-73
2023/10/27 08:56:37;;;;;;;0.10;0.10;;;13.30;87.80;;;;;;5015063;28;20401;-73
2023/10/27 08:59:06;;;;;;;0.20;0.20;;;13.30;87.70;;;;;;5013876;28;20378;-73
2023/10/27 09:01:32;;;;;;;0.20;0.20;;;13.20;87.70;;;;;;5013393;28;20517;-73
2023/10/27 09:04:15;;;;;;;0.10;0.10;;;13.20;87.80;;;;;;4996321;28;20443;-73
2023/10/27 09:06:42;;;;;;;0.10;0.10;;;13.30;87.80;;;;;;5011982;28;20028;-73
2023/10/27 09:09:09;;;;;;;0.10;0.10;;;13.30;87.70;;;;;;5018048;28;20042;-72
2023/10/27 09:11:43;;;;;;;0.10;0.10;;;13.30;87.50;;;;;;5015650;28;20560;-73
2023/10/27 09:14:39;;;;;;;0.10;0.10;;;13.30;87.60;;;;;;5015338;28;20548;-72
2023/10/27 09:17:07;;;;;;;0.10;0.10;;;13.30;87.60;;;;;;5017977;28;20788;-73
2023/10/27 09:19:33;;;;;;;0.10;0.10;;;13.30;87.70;;;;;;4996091;28;20037;-73
2023/10/27 09:22:00;;;;;;;0.10;0.10;;;13.30;87.80;;;;;;5017707;28;20030;-73
2023/10/27 09:24:27;;;;;;;0.10;0.10;;;13.30;87.80;;;;;;5015870;28;20103;-72
2023/10/27 09:26:57;;;;;;;0.10;0.10;;;13.30;87.60;;;;;;5015029;28;20017;-72
2023/10/27 09:29:23;;;;;;;0.10;0.10;;;13.40;87.50;;;;;;5007723;28;20081;-73
2023/10/27 09:31:51;;;;;;;0.10;0.10;;;13.30;87.70;;;;;;5016889;28;20050;-73
2023/10/27 09:34:24;;;;;;;0.10;0.10;;;13.30;87.50;;;;;;5015858;28;20030;-72
2023/10/27 09:36:58;;;;;;;0.10;0.10;;;13.30;87.80;;;;;;5016933;28;20025;-72
2023/10/27 09:39:25;;;;;;;0.10;0.10;;;13.30;87.80;;;;;;5013150;28;20025;-73
2023/10/27 09:42:04;;;;;;;0.10;0.10;;;13.30;87.80;;;;;;5013953;28;20034;-73
2023/10/27 09:45:00;;;;;;;0.10;0.10;;;13.30;87.70;;;;;;4990510;28;20029;-73
2023/10/27 09:47:41;;;;;;;0.10;0.10;;;13.40;87.80;;;;;;5014840;28;20124;-73
2023/10/27 09:50:09;;;;;;;0.10;0.10;;;13.40;87.70;;;;;;4988730;28;20040;-73
2023/10/27 09:52:39;;;;;;;0.10;0.10;;;13.40;87.70;;;;;;5012764;28;20081;-73
2023/10/27 09:55:05;;;;;;;0.10;0.10;;;13.50;87.70;;;;;;5014973;28;20024;-73
2023/10/27 09:57:32;;;;;;;0.10;0.10;;;13.40;87.80;;;;;;5012146;28;20561;-73
2023/10/27 10:00:00;;;;;;;0.10;0.10;;;13.40;87.90;;;;;;5014774;28;20025;-73
2023/10/27 10:02:28;;;;;;;0.10;0.10;;;13.40;87.70;;;;;;4996980;28;20040;-73
2023/10/27 10:05:00;;;;;;;0.10;0.10;;;13.40;87.80;;;;;;5010628;28;20455;-73
2023/10/27 10:07:34;;;;;;;0.10;0.10;;;13.40;87.70;;;;;;4982770;28;20113;-73
2023/10/27 10:10:26;;;;;;;0.10;0.10;;;13.30;87.60;;;;;;4999572;28;20025;-73
2023/10/27 10:13:04;;;;;;;0.10;0.10;;;13.20;87.70;;;;;;5007894;28;20026;-72
2023/10/27 10:15:34;;;;;;;0.10;0.10;;;13.20;87.90;;;;;;5002639;28;20044;-73
2023/10/27 10:18:01;;;;;;;0.20;0.20;;;13.20;87.90;;;;;;4992591;28;20034;-72
2023/10/27 10:20:44;;;;;;;0.10;0.10;;;13.20;87.80;;;;;;5013387;28;20029;-73
2023/10/27 10:23:10;;;;;;;0.10;0.10;;;13.20;87.80;;;;;;5015672;28;20116;-72
2023/10/27 10:25:36;;;;;;;0.10;0.10;;;13.20;87.90;;;;;;5009899;28;20315;-74
2023/10/27 10:28:11;;;;;;;0.10;0.10;;;13.20;87.90;;;;;;4997163;28;20045;-72
2023/10/27 10:30:39;;;;;;;0.10;0.10;;;13.20;88.00;;;;;;5006611;28;20041;-73
2023/10/27 10:33:16;;;;;;;0.10;0.10;;;13.20;88.00;;;;;;5017275;28;20112;-73
2023/10/27 10:35:46;;;;;;;0.10;0.10;;;13.20;88.00;;;;;;5008073;28;20431;-72
2023/10/27 10:38:24;;;;;;;0.10;0.10;;;13.20;87.90;;;;;;5003229;28;20057;-72
2023/10/27 10:40:50;;;;;;;0.10;0.10;;;13.20;88.00;;;;;;5024012;28;20160;-72
2023/10/27 10:43:20;;;;;;;0.13;0.13;;;13.20;88.10;;;;;;5007120;28;20497;-72
2023/10/27 10:45:56;;;;;;;0.10;0.10;;;13.10;88.20;;;;;;4980356;28;20029;-72
2023/10/27 10:48:26;;;;;;;0.10;0.10;;;13.10;88.20;;;;;;4997588;28;20071;-72
2023/10/27 10:50:59;;;;;;;0.10;0.10;;;13.10;88.30;;;;;;4983828;28;20036;-72
2023/10/27 10:53:25;;;;;;;0.10;0.10;;;13.10;88.40;;;;;;5007039;28;20026;-72
2023/10/27 10:55:55;;;;;;;0.10;0.10;;;13.10;88.30;;;;;;4997922;28;20046;-72
2023/10/27 10:58:25;;;;;;;0.10;0.10;;;13.20;88.40;;;;;;5007241;28;20033;-72
2023/10/27 11:00:53;;;;;;;0.10;0.10;;;13.10;88.40;;;;;;4987964;28;20040;-73
2023/10/27 11:03:19;;;;;;;0.10;0.10;;;13.10;88.50;;;;;;5014169;28;20049;-74
2023/10/27 11:05:45;;;;;;;0.10;0.10;;;13.20;88.50;;;;;;5015476;28;20029;-73
2023/10/27 11:08:10;;;;;;;0.10;0.10;;;13.20;88.50;;;;;;5015377;28;20084;-76
2023/10/27 11:10:36;;;;;;;0.13;0.13;;;13.20;88.50;;;;;;4997031;28;20080;-79
2023/10/27 11:13:05;;;;;;;0.10;0.10;;;13.20;88.50;;;;;;5010365;28;20027;-73
2023/10/27 11:15:50;;;;;;;0.10;0.10;;;13.20;88.40;;;;;;5006135;28;20193;-79
2023/10/27 11:18:16;;;;;;;0.10;0.10;;;13.10;88.30;;;;;;5010490;28;20697;-79
2023/10/27 11:20:43;;;;;;;0.10;0.10;;;13.10;88.20;;;;;;5014291;28;20030;-79
2023/10/27 11:23:14;;;;;;;0.10;0.10;;;13.10;88.00;;;;;;5012128;28;20034;-79
2023/10/27 11:25:41;;;;;;;0.10;0.10;;;13.10;88.30;;;;;;5012159;28;20068;-79
2023/10/27 11:28:26;;;;;;;0.10;0.10;;;13.10;88.20;;;;;;5008522;28;20026;-79
2023/10/27 11:31:08;;;;;;;0.10;0.10;;;13.20;88.00;;;;;;5012141;28;20041;-79
2023/10/27 11:33:54;;;;;;;0.10;0.10;;;13.20;88.20;;;;;;5012630;28;20033;-79
2023/10/27 11:36:21;;;;;;;0.10;0.10;;;13.30;88.00;;;;;;5009670;28;20050;-79
2023/10/27 11:38:46;;;;;;;0.10;0.10;;;13.30;87.60;;;;;;5011170;28;20095;-79
2023/10/27 11:41:15;;;;;;;0.10;0.10;;;13.30;87.60;;;;;;5013248;28;20034;-79
2023/10/27 11:43:41;;;;;;;0.10;0.10;;;13.30;87.70;;;;;;5009714;28;20029;-80
2023/10/27 11:46:20;;;;;;;0.10;0.10;;;13.40;87.60;;;;;;5013295;28;20014;-79
2023/10/27 11:48:46;;;;;;;0.10;0.10;;;13.40;87.40;;;;;;4993839;28;20370;-79
2023/10/27 11:51:12;;;;;;;0.10;0.10;;;13.40;87.60;;;;;;5015205;28;20117;-80
2023/10/27 11:53:43;;;;;;;0.10;0.10;;;13.30;87.50;;;;;;5011816;28;20030;-79
2023/10/27 11:56:09;;;;;;;0.10;0.10;;;13.30;87.60;;;;;;4995671;28;20049;-79
2023/10/27 11:58:34;;;;;;;0.10;0.10;;;13.30;87.50;;;;;;4982072;28;20140;-79
2023/10/27 12:01:00;;;;;;;0.10;0.10;;;13.30;87.30;;;;;;5005809;28;20033;-79
2023/10/27 12:03:26;;;;;;;0.10;0.10;;;13.40;87.50;;;;;;5012053;28;20026;-84
2023/10/27 12:05:51;;;;;;;0.10;0.10;;;13.40;87.50;;;;;;4997103;28;20015;-81
2023/10/27 12:08:17;;;;;;;0.10;0.10;;;13.30;87.20;;;;;;5010150;28;20056;-83
2023/10/27 12:10:43;;;;;;;0.10;0.10;;;13.40;87.40;;;;;;5010112;28;20064;-83
2023/10/27 12:13:09;;;;;;;0.10;0.10;;;13.30;87.40;;;;;;5013962;28;20061;-83
2023/10/27 12:15:35;;;;;;;0.10;0.10;;;13.30;87.50;;;;;;5017797;28;20053;-80
2023/10/27 12:18:06;;;;;;;0.10;0.10;;;13.30;87.40;;;;;;4997821;28;20409;-80
2023/10/27 12:20:32;;;;;;;0.10;0.10;;;13.30;87.20;;;;;;5016989;28;20049;-81
2023/10/27 12:22:58;;;;;;;0.10;0.10;;;13.30;87.00;;;;;;4995771;28;20033;-84
2023/10/27 12:25:24;;;;;;;0.10;0.10;;;13.30;87.00;;;;;;5018458;28;20452;-82
2023/10/27 12:27:50;;;;;;;0.10;0.10;;;13.30;87.40;;;;;;5016973;28;20032;-85
2023/10/27 12:30:16;;;;;;;0.10;0.10;;;13.40;87.30;;;;;;5017566;28;20049;-85
2023/10/27 12:32:42;;;;;;;0.20;0.20;;;13.50;87.20;;;;;;5016908;28;20485;-81
2023/10/27 12:35:08;;;;;;;0.10;0.10;;;13.60;86.90;;;;;;5001279;28;20037;-80
2023/10/27 12:37:34;;;;;;;0.10;0.10;;;13.70;86.40;;;;;;5018447;28;20049;-79
2023/10/27 12:40:00;;;;;;;0.10;0.10;;;13.80;86.60;;;;;;5018640;28;20401;-79
2023/10/27 12:42:28;;;;;;;0.10;0.10;;;13.90;86.70;;;;;;4999415;28;20030;-79
2023/10/27 12:44:57;;;;;;;0.10;0.10;;;14.00;86.60;;;;;;5012697;28;20052;-80
2023/10/27 12:47:23;;;;;;;0.10;0.10;;;14.20;86.00;;;;;;4997029;28;20026;-79
2023/10/27 12:49:48;;;;;;;0.10;0.10;;;14.30;86.10;;;;;;5016545;28;20018;-80
2023/10/27 12:52:15;;;;;;;0.10;0.10;;;14.40;85.80;;;;;;4996162;28;20034;-80
2023/10/27 12:54:40;;;;;;;0.10;0.10;;;14.60;85.70;;;;;;5016281;28;20141;-80
2023/10/27 12:57:06;;;;;;;0.10;0.10;;;14.60;85.20;;;;;;5012304;28;20062;-80
2023/10/27 12:59:32;;;;;;;0.10;0.10;;;14.70;85.40;;;;;;5018203;28;20030;-80
2023/10/27 13:01:58;;;;;;;0.05;0.05;;;14.70;84.80;;;;;;5016138;28;20100;-80
2023/10/27 13:04:24;;;;;;;0.10;0.10;;;14.80;84.90;;;;;;5006997;28;20100;-80
2023/10/27 13:06:51;;;;;;;0.10;0.10;;;14.70;84.60;;;;;;5009888;28;20021;-80
2023/10/27 13:09:20;;;;;;;0.10;0.10;;;14.60;84.10;;;;;;5013984;28;20036;-80
2023/10/27 13:11:47;;;;;;;0.10;0.10;;;14.50;84.40;;;;;;4999202;28;20025;-79
2023/10/27 13:14:13;;;;;;;0.10;0.10;;;14.50;84.60;;;;;;5011544;28;20025;-80
2023/10/27 13:16:40;;;;;;;0.10;0.10;;;14.60;85.00;;;;;;5000184;28;20025;-79
2023/10/27 13:19:07;;;;;;;0.00;0.00;;;14.70;84.70;;;;;;5014486;28;20060;-79
2023/10/27 13:21:35;;;;;;;0.10;0.10;;;14.70;84.60;;;;;;5014025;28;20030;-79
2023/10/27 13:24:01;;;;;;;0.00;0.00;;;14.70;84.40;;;;;;4999951;28;20018;-80
2023/10/27 13:26:27;;;;;;;0.10;0.10;;;14.90;84.40;;;;;;5016339;28;20111;-80
2023/10/27 13:28:52;;;;;;;0.10;0.10;;;15.00;84.50;;;;;;4998350;28;20052;-80
2023/10/27 13:31:18;;;;;;;0.10;0.10;;;15.00;83.00;;;;;;5016954;28;20492;-80
2023/10/27 13:33:47;;;;;;;0.10;0.10;;;15.10;83.40;;;;;;5015200;28;20022;-80
2023/10/27 13:36:13;;;;;;;0.10;0.10;;;14.90;82.70;;;;;;4995093;28;20033;-80
2023/10/27 13:38:40;;;;;;;0.10;0.10;;;14.80;83.40;;;;;;5016839;28;20017;-80
2023/10/27 13:41:15;;;;;;;0.10;0.10;;;14.70;83.10;;;;;;5016218;28;20081;-80
2023/10/27 13:43:40;;;;;;;0.10;0.10;;;14.60;83.50;;;;;;5016009;28;20535;-80
2023/10/27 13:46:06;;;;;;;0.08;0.08;;;14.60;83.50;;;;;;5017383;28;20033;-80
2023/10/27 13:48:33;;;;;;;0.10;0.10;;;14.70;83.90;;;;;;5018180;28;20064;-80
2023/10/27 13:51:07;;;;;;;0.10;0.10;;;15.10;83.30;;;;;;5016702;28;20048;-80
2023/10/27 13:53:33;;;;;;;0.10;0.10;;;15.20;82.90;;;;;;5014913;28;20029;-80
2023/10/27 13:55:59;;;;;;;0.10;0.10;;;15.30;82.90;;;;;;5015233;28;20030;-81
2023/10/27 13:58:24;;;;;;;0.03;0.03;;;15.20;81.30;;;;;;5016453;28;20061;-80
2023/10/27 14:00:50;;;;;;;0.10;0.10;;;15.10;81.80;;;;;;5017778;28;20030;-81
2023/10/27 14:03:15;;;;;;;0.00;0.00;;;15.20;81.80;;;;;;5017666;28;20029;-80
2023/10/27 14:05:41;;;;;;;0.10;0.10;;;15.10;82.10;;;;;;5016377;28;20128;-80
2023/10/27 14:08:08;;;;;;;0.10;0.10;;;15.00;81.90;;;;;;4999838;28;20026;-81
2023/10/27 14:10:34;;;;;;;0.10;0.10;;;15.00;81.60;;;;;;5014715;28;20045;-80
2023/10/27 14:12:59;;;;;;;0.10;0.10;;;14.90;81.40;;;;;;5014820;28;20022;-80
2023/10/27 14:15:25;;;;;;;0.10;0.10;;;14.70;81.70;;;;;;5016975;28;20037;-81
2023/10/27 14:17:51;;;;;;;0.10;0.10;;;14.80;81.60;;;;;;5016746;28;20438;-81
2023/10/27 14:20:20;;;;;;;0.00;0.00;;;14.70;81.70;;;;;;4995819;28;20042;-80
2023/10/27 14:22:46;;;;;;;0.00;0.00;;;14.50;81.70;;;;;;5016704;28;20026;-81
2023/10/27 14:25:12;;;;;;;0.10;0.10;;;14.50;82.10;;;;;;5016959;28;20045;-80
2023/10/27 14:27:38;;;;;;;0.05;0.05;;;14.40;82.10;;;;;;5015171;28;20093;-82
2023/10/27 14:30:05;;;;;;;0.10;0.10;;;14.40;82.30;;;;;;5011944;28;20030;-82
2023/10/27 14:32:31;;;;;;;0.10;0.10;;;14.60;82.60;;;;;;5006782;28;20088;-83
2023/10/27 14:34:56;;;;;;;0.10;0.10;;;14.70;82.50;;;;;;5014568;28;20500;-82
2023/10/27 14:37:22;;;;;;;0.10;0.10;;;14.70;82.50;;;;;;5011691;28;20068;-87
2023/10/27 14:39:48;;;;;;;0.10;0.10;;;14.80;82.40;;;;;;5016495;28;20026;-80
2023/10/27 14:42:16;;;;;;;0.10;0.10;;;14.90;82.30;;;;;;5016159;28;20041;-80
2023/10/27 14:44:42;;;;;;;0.10;0.10;;;15.00;82.30;;;;;;5015672;28;20022;-80
2023/10/27 14:47:09;;;;;;;0.10;0.10;;;15.00;81.80;;;;;;5015776;28;20030;-79
2023/10/27 14:49:38;;;;;;;0.10;0.10;;;15.00;81.80;;;;;;4993940;28;20032;-80
2023/10/27 14:52:05;;;;;;;0.10;0.10;;;15.00;81.60;;;;;;5006195;28;20030;-80
2023/10/27 14:54:31;;;;;;;0.10;0.10;;;14.70;81.10;;;;;;5013559;28;20029;-79
2023/10/27 14:56:57;;;;;;;0.10;0.10;;;14.70;81.90;;;;;;5012777;28;20029;-78
2023/10/27 14:59:22;;;;;;;0.05;0.05;;;14.60;82.20;;;;;;4995717;28;20037;-79
2023/10/27 15:01:48;;;;;;;0.10;0.10;;;14.40;82.40;;;;;;4993043;28;20032;-80
2023/10/27 15:04:15;;;;;;;0.22;0.10;;;14.40;83.10;;;;;;4991038;28;20088;-80
2023/10/27 15:06:41;;;;;;;0.10;0.10;;;14.30;82.80;;;;;;5010667;28;20018;-80
2023/10/27 15:09:07;;;;;;;0.00;0.00;;;14.30;83.30;;;;;;5012970;28;20587;-80
2023/10/27 15:11:33;;;;;;;0.10;0.10;;;14.20;83.40;;;;;;5011974;28;20057;-80
2023/10/27 15:13:58;;;;;;;0.10;0.10;;;14.20;83.70;;;;;;5010163;28;20085;-79
2023/10/27 15:16:24;;;;;;;0.00;0.00;;;14.10;83.70;;;;;;5007428;28;20105;-80
2023/10/27 15:18:50;;;;;;;0.10;0.10;;;14.00;84.00;;;;;;5008591;28;20064;-79
2023/10/27 15:21:18;;;;;;;0.10;0.10;;;14.00;84.10;;;;;;4988895;28;20460;-79
2023/10/27 15:23:48;;;;;;;0.08;0.08;;;14.00;84.50;;;;;;5009603;28;20474;-78
2023/10/27 15:26:14;;;;;;;0.10;0.10;;;14.00;84.40;;;;;;5010650;28;20022;-79
2023/10/27 15:28:40;;;;;;;0.00;0.00;;;14.00;84.50;;;;;;4991162;28;20064;-79
2023/10/27 15:31:08;;;;;;;0.10;0.10;;;14.00;84.60;;;;;;5010160;28;20531;-79
2023/10/27 15:33:35;;;;;;;0.00;0.00;;;14.10;84.70;;;;;;5004223;28;20052;-79
2023/10/27 15:36:11;;;;;;;0.10;0.10;;;14.10;85.10;;;;;;5009217;28;20029;-79
2023/10/27 15:38:39;;;;;;;0.00;0.00;;;14.20;85.40;;;;;;5012319;28;20366;-78
2023/10/27 15:41:23;;;;;;;0.05;0.05;;;14.20;85.20;;;;;;5009510;28;20076;-79
2023/10/27 15:43:49;;;;;;;0.10;0.10;;;14.20;85.40;;;;;;4996243;28;20802;-79
2023/10/27 15:46:15;;;;;;;0.00;0.00;;;14.20;85.40;;;;;;5000439;28;20022;-79
2023/10/27 15:48:41;;;;;;;0.10;0.10;;;14.00;85.10;;;;;;5002812;28;20073;-78
2023/10/27 15:51:07;;;;;;;0.10;0.10;;;14.00;85.50;;;;;;5006856;28;20034;-79
2023/10/27 15:53:33;;;;;;;0.10;0.10;;;14.00;85.40;;;;;;5002933;28;20038;-81
2023/10/27 15:56:02;;;;;;;0.10;0.10;;;14.00;85.50;;;;;;5006495;28;20030;-78
2023/10/27 15:58:28;;;;;;;0.10;0.10;;;13.90;85.50;;;;;;4984889;28;20030;-78
2023/10/27 16:00:55;;;;;;;0.10;0.10;;;14.00;85.60;;;;;;5006285;28;20829;-78
2023/10/27 16:03:21;;;;;;;0.10;0.10;;;13.90;85.40;;;;;;5009374;28;20115;-78
2023/10/27 16:05:48;;;;;;;0.10;0.10;;;13.80;85.40;;;;;;5007850;28;20034;-78
2023/10/27 16:08:14;;;;;;;0.10;0.10;;;13.80;85.50;;;;;;5010639;28;20022;-79
2023/10/27 16:10:40;;;;;;;0.10;0.10;;;13.80;85.50;;;;;;5008908;28;20401;-79
2023/10/27 16:13:07;;;;;;;0.00;0.00;;;13.80;85.50;;;;;;5009046;28;20030;-79
2023/10/27 16:15:35;;;;;;;0.10;0.10;;;13.80;85.30;;;;;;5005341;28;20041;-79
2023/10/27 16:18:01;;;;;;;0.10;0.10;;;13.80;85.60;;;;;;5003759;28;20113;-79
2023/10/27 16:20:27;;;;;;;0.10;0.10;;;13.90;85.60;;;;;;5010084;28;20724;-79
2023/10/27 16:22:52;;;;;;;0.10;0.10;;;13.90;85.60;;;;;;5004433;28;20076;-79
2023/10/27 16:25:18;;;;;;;0.10;0.10;;;13.90;85.50;;;;;;4992497;28;20072;-79
2023/10/27 16:27:44;;;;;;;0.10;0.10;;;14.00;85.70;;;;;;5010582;28;20033;-79
2023/10/27 16:30:09;;;;;;;0.10;0.10;;;14.00;85.70;;;;;;5008496;28;20023;-79
2023/10/27 16:32:35;;;;;;;0.00;0.00;;;14.00;85.70;;;;;;5002702;28;20087;-78
2023/10/27 16:35:03;;;;;;;0.10;0.10;;;13.90;85.90;;;;;;5003080;28;20042;-81
2023/10/27 16:37:29;;;;;;;0.10;0.10;;;13.90;85.80;;;;;;4986742;28;20095;-79
2023/10/27 16:39:55;;;;;;;0.00;0.00;;;13.80;86.00;;;;;;5010299;28;20340;-78
2023/10/27 16:42:21;;;;;;;0.10;0.10;;;13.80;85.90;;;;;;4995040;28;20033;-78
2023/10/27 16:44:46;;;;;;;0.10;0.10;;;13.80;85.80;;;;;;5004561;28;20018;-78
2023/10/27 16:47:13;;;;;;;0.00;0.00;;;13.70;85.80;;;;;;5000527;28;20043;-79
2023/10/27 16:49:39;;;;;;;0.20;0.10;;;13.70;85.90;;;;;;4995857;28;20022;-78
2023/10/27 16:52:05;;;;;;;0.10;0.10;;;13.60;86.00;;;;;;5007603;28;20038;-79
2023/10/27 16:54:30;;;;;;;0.10;0.10;;;13.60;85.90;;;;;;4999860;28;20034;-79
2023/10/27 16:56:57;;;;;;;0.10;0.10;;;13.60;86.10;;;;;;5003692;28;20109;-79
2023/10/27 16:59:22;;;;;;;0.10;0.10;;;13.50;86.00;;;;;;5011757;28;20505;-77
2023/10/27 17:01:48;;;;;;;0.10;0.10;;;13.50;85.80;;;;;;5012752;28;20142;-80
2023/10/27 17:04:14;;;;;;;0.15;0.15;;;13.50;86.00;;;;;;5001627;28;20084;-77
2023/10/27 17:06:39;;;;;;;0.20;0.20;;;13.40;85.90;;;;;;5007116;28;20026;-77
2023/10/27 17:09:05;;;;;;;0.10;0.10;;;13.40;86.10;;;;;;5005982;28;20026;-77
2023/10/27 17:11:34;;;;;;;0.10;0.10;;;13.40;86.10;;;;;;5018664;28;20128;-77
2023/10/27 17:13:59;;;;;;;0.00;0.00;;;13.40;86.20;;;;;;5017749;28;20021;-77
2023/10/27 17:16:26;;;;;;;0.10;0.10;;;13.30;85.90;;;;;;5016355;28;20037;-77
2023/10/27 17:18:51;;;;;;;0.15;0.10;;;13.40;86.10;;;;;;5013132;28;20485;-77